Time;durP1;ratioP1;P1;durP2;ratioP2;P2;SDS_P1;SDS_P2;PMS_P1;PMS_P2;Temp;Humidity;BMP_temperature;BMP_pressure;BME280_temperature;BME280_humidity;BME280_pressure;Samples;Min_cycle;Max_cycle;Signal;HPM_P1;HPM_P2
2019/11/01 00:01:50;;;;;;;23.8;18;;;;;;;;;;;;;
2019/11/01 00:04:12;;;;;;;24.3;17.3;;;;;;;;;;;;;
2019/11/01 00:06:36;;;;;;;22.7;17.9;;;;;;;;;;;;;
2019/11/01 00:09:02;;;;;;;25.2;18.7;;;;;;;;;;;;;
2019/11/01 00:11:29;;;;;;;27.3;19.1;;;;;;;;;;;;;
2019/11/01 00:13:52;;;;;;;24.7;18.7;;;;;;;;;;;;;
2019/11/01 00:16:19;;;;;;;26.9;18.7;;;;;;;;;;;;;
2019/11/01 00:18:43;;;;;;;25.5;18.8;;;;;;;;;;;;;
2019/11/01 00:21:14;;;;;;;25.3;19.6;;;;;;;;;;;;;
2019/11/01 00:23:36;;;;;;;24.7;18.9;;;;;;;;;;;;;
2019/11/01 00:26:01;;;;;;;26.5;19.1;;;;;;;;;;;;;
2019/11/01 00:28:29;;;;;;;27.5;19.7;;;;;;;;;;;;;
2019/11/01 00:30:53;;;;;;;29.8;20.9;;;;;;;;;;;;;
2019/11/01 00:33:18;;;;;;;30.3;21.1;;;;;;;;;;;;;
2019/11/01 00:35:42;;;;;;;29;20.6;;;;;;;;;;;;;
2019/11/01 00:38:11;;;;;;;31.5;21.5;;;;;;;;;;;;;
2019/11/01 00:40:35;;;;;;;30.2;21.3;;;;;;;;;;;;;
2019/11/01 00:43:01;;;;;;;25.7;19;;;;;;;;;;;;;
2019/11/01 00:45:29;;;;;;;27.5;20;;;;;;;;;;;;;
2019/11/01 00:48:00;;;;;;;27.4;20;;;;;;;;;;;;;
2019/11/01 00:50:16;;;;;;;26;18.9;;;;;;;;;;;;;
2019/11/01 00:52:42;;;;;;;25.7;19.1;;;;;;;;;;;;;
2019/11/01 00:55:10;;;;;;;25.8;18.9;;;;;;;;;;;;;
2019/11/01 00:57:54;;;;;;;26.2;18.5;;;;;;;;;;;;;
2019/11/01 01:02:33;;;;;;;23.3;16.5;;;;;;;;;;;;;
2019/11/01 01:05:02;;;;;;;20.3;15.9;;;;;;;;;;;;;
2019/11/01 01:07:24;;;;;;;22.2;16.7;;;;;;;;;;;;;
2019/11/01 01:09:49;;;;;;;19.8;14.3;;;;;;;;;;;;;
2019/11/01 01:12:14;;;;;;;12.2;10.2;;;;;;;;;;;;;
2019/11/01 01:14:42;;;;;;;13.3;9.7;;;;;;;;;;;;;
2019/11/01 01:17:05;;;;;;;8;6.4;;;;;;;;;;;;;
2019/11/01 01:19:31;;;;;;;8;6.2;;;;;;;;;;;;;
2019/11/01 01:21:58;;;;;;;5.3;4.6;;;;;;;;;;;;;
2019/11/01 01:24:33;;;;;;;4;3.1;;;;;;;;;;;;;
2019/11/01 01:26:59;;;;;;;3;2.2;;;;;;;;;;;;;
2019/11/01 01:29:11;;;;;;;2.9;2.4;;;;;;;;;;;;;
2019/11/01 01:31:40;;;;;;;2.7;2.5;;;;;;;;;;;;;
2019/11/01 01:34:02;;;;;;;3.6;2.8;;;;;;;;;;;;;
2019/11/01 01:36:35;;;;;;;2.9;2.6;;;;;;;;;;;;;
2019/11/01 01:39:04;;;;;;;2.5;2.1;;;;;;;;;;;;;
2019/11/01 01:41:32;;;;;;;2.7;2.5;;;;;;;;;;;;;
2019/11/01 01:43:57;;;;;;;2.7;2.3;;;;;;;;;;;;;
2019/11/01 01:46:55;;;;;;;2.4;2.2;;;;;;;;;;;;;
2019/11/01 01:49:05;;;;;;;2.9;2.6;;;;;;;;;;;;;
2019/11/01 01:51:35;;;;;;;2.4;2.1;;;;;;;;;;;;;
2019/11/01 01:53:56;;;;;;;2.7;2.5;;;;;;;;;;;;;
2019/11/01 01:56:22;;;;;;;3.7;2.4;;;;;;;;;;;;;
2019/11/01 01:58:49;;;;;;;3.6;2.2;;;;;;;;;;;;;
2019/11/01 02:01:13;;;;;;;2.4;2.2;;;;;;;;;;;;;
2019/11/01 02:03:37;;;;;;;2.4;2.2;;;;;;;;;;;;;
2019/11/01 02:06:02;;;;;;;2.4;2.2;;;;;;;;;;;;;
2019/11/01 02:08:29;;;;;;;3.1;2.2;;;;;;;;;;;;;
2019/11/01 02:10:56;;;;;;;2.4;2.1;;;;;;;;;;;;;
2019/11/01 02:13:19;;;;;;;3.3;2.3;;;;;;;;;;;;;
2019/11/01 02:15:44;;;;;;;4.7;2.2;;;;;;;;;;;;;
2019/11/01 02:18:13;;;;;;;2.3;2.1;;;;;;;;;;;;;
2019/11/01 02:20:37;;;;;;;2.4;2.1;;;;;;;;;;;;;
2019/11/01 02:25:32;;;;;;;1.8;1.6;;;;;;;;;;;;;
2019/11/01 02:27:55;;;;;;;2.8;1.9;;;;;;;;;;;;;
2019/11/01 02:32:44;;;;;;;2.3;1.9;;;;;;;;;;;;;
2019/11/01 02:35:16;;;;;;;2.1;1.9;;;;;;;;;;;;;
2019/11/01 02:37:59;;;;;;;2.5;1.9;;;;;;;;;;;;;
2019/11/01 02:40:03;;;;;;;2;1.8;;;;;;;;;;;;;
2019/11/01 02:42:25;;;;;;;3.2;1.8;;;;;;;;;;;;;
2019/11/01 02:44:53;;;;;;;2.8;2.1;;;;;;;;;;;;;
2019/11/01 02:47:15;;;;;;;2.3;2.1;;;;;;;;;;;;;
2019/11/01 02:49:43;;;;;;;2;1.7;;;;;;;;;;;;;
2019/11/01 02:52:08;;;;;;;2.3;2.1;;;;;;;;;;;;;
2019/11/01 02:54:55;;;;;;;2.5;2.2;;;;;;;;;;;;;
2019/11/01 02:57:03;;;;;;;3;1.9;;;;;;;;;;;;;
2019/11/01 02:59:23;;;;;;;2.6;2;;;;;;;;;;;;;
2019/11/01 03:01:49;;;;;;;1.9;1.8;;;;;;;;;;;;;
2019/11/01 03:04:15;;;;;;;1.6;1.5;;;;;;;;;;;;;
2019/11/01 03:06:57;;;;;;;1.9;1.6;;;;;;;;;;;;;
2019/11/01 03:09:22;;;;;;;1.7;1.6;;;;;;;;;;;;;
2019/11/01 03:11:46;;;;;;;1.7;1.6;;;;;;;;;;;;;
2019/11/01 03:14:11;;;;;;;2.4;2;;;;;;;;;;;;;
2019/11/01 03:16:39;;;;;;;2.3;2;;;;;;;;;;;;;
2019/11/01 03:19:02;;;;;;;3.3;1.9;;;;;;;;;;;;;
2019/11/01 03:21:27;;;;;;;3.8;2.3;;;;;;;;;;;;;
2019/11/01 03:23:52;;;;;;;2.5;2;;;;;;;;;;;;;
2019/11/01 03:26:21;;;;;;;3;1.9;;;;;;;;;;;;;
2019/11/01 03:28:44;;;;;;;4;1.9;;;;;;;;;;;;;
2019/11/01 03:31:08;;;;;;;2.1;1.6;;;;;;;;;;;;;
2019/11/01 03:33:38;;;;;;;2.3;1.8;;;;;;;;;;;;;
2019/11/01 03:36:01;;;;;;;2.7;2;;;;;;;;;;;;;
2019/11/01 03:38:25;;;;;;;3.4;1.9;;;;;;;;;;;;;
2019/11/01 03:40:51;;;;;;;2.4;2;;;;;;;;;;;;;
2019/11/01 03:43:19;;;;;;;3;2.3;;;;;;;;;;;;;
2019/11/01 03:45:44;;;;;;;3;2.5;;;;;;;;;;;;;
2019/11/01 03:48:05;;;;;;;3.6;3;;;;;;;;;;;;;
2019/11/01 03:50:31;;;;;;;3.8;2.7;;;;;;;;;;;;;
2019/11/01 03:52:56;;;;;;;3.3;2.6;;;;;;;;;;;;;
2019/11/01 03:55:33;;;;;;;4.1;3.1;;;;;;;;;;;;;
2019/11/01 03:57:51;;;;;;;4.5;2.8;;;;;;;;;;;;;
2019/11/01 04:02:34;;;;;;;7;4.7;;;;;;;7.23;89.5;938.1459;;;;
2019/11/01 04:07:32;;;;;;;9.9;6.6;;;;;;;7.15;90.50098;938.0916;;;;
2019/11/01 04:10:01;;;;;;;22.6;7.5;;;;;;;7.06;91.24023;938.1085;;;;
2019/11/01 04:12:32;;;;;;;18.2;7.2;;;;;;;7.19;90.49902;938.1035;;;;
2019/11/01 04:14:58;;;;;;;23.8;7.2;;;;;;;6.97;91.32324;938.1031;;;;
2019/11/01 04:17:23;;;;;;;17.3;7.3;;;;;;;7.19;90.4082;938.1011;;;;
2019/11/01 04:19:52;;;;;;;10;6.7;;;;;;;7.12;90.06445;938.0703;;;;
2019/11/01 04:22:17;;;;;;;14.1;7;;;;;;;6.84;91.04688;938.127;;;;
2019/11/01 04:24:49;;;;;;;24.5;8.2;;;;;;;6.62;92.63965;938.0875;;;;
2019/11/01 04:27:10;;;;;;;16.9;7.2;;;;;;;6.59;92.53223;938.0305;;;;
2019/11/01 04:29:36;;;;;;;14.7;6.9;;;;;;;6.56;92.77539;938.0321;;;;
2019/11/01 04:32:03;;;;;;;14.5;7.5;;;;;;;6.43;93.41504;938.0552;;;;
2019/11/01 04:34:32;;;;;;;8.2;6.3;;;;;;;6.73;92.43848;938.0064;;;;
2019/11/01 04:37:07;;;;;;;9.5;6.6;;;;;;;6.68;92.17969;937.9396;;;;
2019/11/01 04:39:25;;;;;;;11.7;6.6;;;;;;;6.75;92.19336;938.0069;;;;
2019/11/01 04:41:48;;;;;;;13.9;7;;;;;;;6.59;92.30566;937.991;;;;
2019/11/01 04:44:33;;;;;;;15.2;8.2;;;;;;;6.52;93.32129;937.9331;;;;
2019/11/01 04:47:04;;;;;;;11.7;7.5;;;;;;;6.34;93.91504;937.9404;;;;
2019/11/01 04:49:27;;;;;;;12.4;7.3;;;;;;;6.48;93.54883;937.8642;;;;
2019/11/01 04:51:58;;;;;;;13.6;6.8;;;;;;;6.55;93.0918;937.945;;;;
2019/11/01 04:54:37;;;;;;;8.2;6.4;;;;;;;6.78;92.48438;937.8912;;;;
2019/11/01 04:57:04;;;;;;;7.1;5.5;;;;;;;6.94;91.29492;937.8619;;;;
2019/11/01 04:59:30;;;;;;;6.1;5.3;;;;;;;7;90.74023;937.8797;;;;
2019/11/01 05:01:53;;;;;;;5.5;4.7;;;;;;;6.93;90.77246;937.7706;;;;
2019/11/01 05:04:26;;;;;;;6.7;4.8;;;;;;;6.94;90.8418;937.7739;;;;
2019/11/01 05:06:50;;;;;;;5.4;4.7;;;;;;;6.91;90.55078;937.8175;;;;
2019/11/01 05:09:20;;;;;;;6.3;4.6;;;;;;;6.94;90.24219;937.8214;;;;
2019/11/01 05:11:44;;;;;;;5.8;4.9;;;;;;;6.92;90.43066;937.7443;;;;
2019/11/01 05:14:15;;;;;;;4.9;4.4;;;;;;;7.06;89.54395;937.7824;;;;
2019/11/01 05:17:11;;;;;;;5.3;4.8;;;;;;;7.04;89.52637;937.7653;;;;
2019/11/01 05:19:42;;;;;;;5.2;4.6;;;;;;;6.99;89.4834;937.7101;;;;
2019/11/01 05:22:14;;;;;;;6.4;4.7;;;;;;;6.93;89.66211;937.6542;;;;
2019/11/01 05:24:38;;;;;;;6.7;4.7;;;;;;;7.09;88.92578;937.6263;;;;
2019/11/01 05:27:07;;;;;;;5.3;4.8;;;;;;;7.05;88.63379;937.5779;;;;
2019/11/01 05:29:33;;;;;;;7.4;5.4;;;;;;;7.09;88.6748;937.6199;;;;
2019/11/01 05:31:59;;;;;;;8.5;5.8;;;;;;;7.06;88.99805;937.5884;;;;
2019/11/01 05:36:54;;;;;;;7.2;5.5;;;;;;;7.01;89.11328;937.498;;;;
2019/11/01 05:39:26;;;;;;;7.4;5.6;;;;;;;6.87;89.86426;937.455;;;;
2019/11/01 05:41:58;;;;;;;6.8;5.5;;;;;;;6.83;89.69824;937.3806;;;;
2019/11/01 05:44:23;;;;;;;7.1;4.9;;;;;;;6.7;90.93945;937.4575;;;;
2019/11/01 05:47:14;;;;;;;5.8;4;;;;;;;6.89;89.99414;937.4064;;;;
2019/11/01 05:49:45;;;;;;;5.2;4.4;;;;;;;6.85;89.54492;937.481;;;;
2019/11/01 05:52:11;;;;;;;7.2;5.1;;;;;;;6.73;90.1416;937.4185;;;;
2019/11/01 05:54:42;;;;;;;6.6;5.5;;;;;;;6.59;90.33691;937.3652;;;;
2019/11/01 05:57:05;;;;;;;7.6;5.7;;;;;;;6.49;91.1875;937.4498;;;;
2019/11/01 05:59:38;;;;;;;5.7;5.1;;;;;;;6.63;90.42383;937.3125;;;;
2019/11/01 06:02:00;;;;;;;7.4;5.5;;;;;;;6.45;91.04395;937.4481;;;;
2019/11/01 06:04:33;;;;;;;5.3;4.6;;;;;;;6.49;90.9502;937.4008;;;;
2019/11/01 06:06:56;;;;;;;6.4;4.4;;;;;;;6.61;90.24121;937.3619;;;;
2019/11/01 06:09:26;;;;;;;6.4;4.2;;;;;;;6.63;90.00781;937.3434;;;;
2019/11/01 06:11:50;;;;;;;6;5;;;;;;;6.43;90.75586;937.3242;;;;
2019/11/01 06:14:17;;;;;;;5.8;4.2;;;;;;;6.28;91.3916;937.3339;;;;
2019/11/01 06:16:45;;;;;;;7;4.8;;;;;;;6.17;92.02637;937.32;;;;
2019/11/01 06:19:15;;;;;;;15.6;14.2;;;;;;;6.12;91.84277;937.332;;;;
2019/11/01 06:21:40;;;;;;;7.2;5.1;;;;;;;6.05;92.47168;937.3273;;;;
2019/11/01 06:24:06;;;;;;;7.3;5.6;;;;;;;6.06;92.84863;937.2819;;;;
2019/11/01 06:26:35;;;;;;;10;6.5;;;;;;;6.12;92.61328;937.243;;;;
2019/11/01 06:29:00;;;;;;;13.4;10.9;;;;;;;6.14;92.24219;937.218;;;;
2019/11/01 06:31:31;;;;;;;7.4;6.6;;;;;;;6.3;91.72559;937.1978;;;;
2019/11/01 06:33:54;;;;;;;6.4;5.2;;;;;;;6.13;91.92383;937.1688;;;;
2019/11/01 06:36:20;;;;;;;5.5;4.2;;;;;;;6.35;91.63379;937.2234;;;;
2019/11/01 06:38:50;;;;;;;4.4;3.5;;;;;;;6.45;90.83984;937.0963;;;;
2019/11/01 06:43:41;;;;;;;5.9;4.9;;;;;;;6.3;91.38672;937.223;;;;
2019/11/01 06:46:09;;;;;;;9.6;8.7;;;;;;;6.43;91.40039;937.2419;;;;
2019/11/01 06:48:34;;;;;;;9.5;6.6;;;;;;;6.43;90.84766;937.2335;;;;
2019/11/01 06:50:59;;;;;;;10;6.3;;;;;;;6.7;90.3623;937.197;;;;
2019/11/01 06:53:30;;;;;;;9.5;6.4;;;;;;;6.89;89.61914;937.2014;;;;
2019/11/01 06:55:54;;;;;;;19.3;9.7;;;;;;;6.95;88.8418;937.1403;;;;
2019/11/01 06:58:22;;;;;;;15.1;8.9;;;;;;;6.79;89.92676;937.2148;;;;
2019/11/01 07:00:44;;;;;;;12.7;7.7;;;;;;;6.92;89.76074;937.1822;;;;
2019/11/01 07:03:10;;;;;;;13;9;;;;;;;6.92;89.44336;937.2614;;;;
2019/11/01 07:06:16;;;;;;;12.5;8.2;;;;;;;7.11;89.03418;937.2095;;;;
2019/11/01 07:08:44;;;;;;;8.7;6.4;;;;;;;7.39;88.11523;937.2455;;;;
2019/11/01 07:11:10;;;;;;;7.9;6.2;;;;;;;7.43;87.6582;937.2789;;;;
2019/11/01 07:13:31;;;;;;;10.4;5.8;;;;;;;7.66;87.27441;937.2385;;;;
2019/11/01 07:16:05;;;;;;;6.1;4.6;;;;;;;7.97;86.17773;937.2213;;;;
2019/11/01 07:18:25;;;;;;;6.5;5;;;;;;;8.09;85.0791;937.1808;;;;
2019/11/01 07:20:50;;;;;;;5.1;3.9;;;;;;;7.93;86.18359;937.1826;;;;
2019/11/01 07:23:18;;;;;;;5.3;3.6;;;;;;;8.17;85.70801;937.144;;;;
2019/11/01 07:25:45;;;;;;;10.8;5;;;;;;;8.49;85.7959;937.2151;;;;
2019/11/01 07:28:11;;;;;;;23.2;10.4;;;;;;;8.71;84.92969;937.1909;;;;
2019/11/01 07:30:35;;;;;;;15.1;7.3;;;;;;;;;;;;;
2019/11/01 07:33:04;;;;;;;29.4;14.8;;;;;;;;;;;;;
2019/11/01 07:35:28;;;;;;;9.1;5.3;;;;;;;;;;;;;
2019/11/01 07:37:52;;;;;;;7.3;4;;;;;;;;;;;;;
2019/11/01 07:40:17;;;;;;;11.5;5.7;;;;;;;;;;;;;
2019/11/01 07:42:45;;;;;;;6.9;4;;;;;;;;;;;;;
2019/11/01 07:45:08;;;;;;;10;6;;;;;;;;;;;;;
2019/11/01 07:47:33;;;;;;;17.2;8.7;;;;;;;;;;;;;
2019/11/01 07:50:00;;;;;;;13;7.4;;;;;;;;;;;;;
2019/11/01 07:52:30;;;;;;;11.5;7.4;;;;;;;;;;;;;
2019/11/01 07:54:56;;;;;;;7.7;5.1;;;;;;;;;;;;;
2019/11/01 07:57:18;;;;;;;5;4.3;;;;;;;;;;;;;
2019/11/01 08:02:13;;;;;;;9.1;5.3;;;;;;;;;;;;;
2019/11/01 08:04:37;;;;;;;6.8;3.3;;;;;;;;;;;;;
2019/11/01 08:07:11;;;;;;;6.1;2.6;;;;;;;;;;;;;
2019/11/01 08:09:29;;;;;;;4.3;2.7;;;;;;;;;;;;;
2019/11/01 08:11:55;;;;;;;2.6;2;;;;;;;;;;;;;
2019/11/01 08:14:21;;;;;;;4.9;3.6;;;;;;;;;;;;;
2019/11/01 08:16:48;;;;;;;1.9;1.4;;;;;;;;;;;;;
2019/11/01 08:19:12;;;;;;;5.4;3.9;;;;;;;;;;;;;
2019/11/01 08:21:50;;;;;;;2.4;1.4;;;;;;;;;;;;;
2019/11/01 08:24:02;;;;;;;1.4;1.2;;;;;;;;;;;;;
2019/11/01 08:26:30;;;;;;;1.9;1.4;;;;;;;;;;;;;
2019/11/01 08:28:55;;;;;;;3;2.1;;;;;;;;;;;;;
2019/11/01 08:31:16;;;;;;;2.3;1.2;;;;;;;;;;;;;
2019/11/01 08:33:42;;;;;;;2.8;1.8;;;;;;;;;;;;;
2019/11/01 08:36:07;;;;;;;3;2.7;;;;;;;;;;;;;
2019/11/01 08:38:44;;;;;;;3.8;2.8;;;;;;;;;;;;;
2019/11/01 08:43:44;;;;;;;2.4;1.2;;;;;;;;;;;;;
2019/11/01 08:46:09;;;;;;;5.1;3.7;;;;;;;;;;;;;
2019/11/01 08:48:39;;;;;;;1.7;1.2;;;;;;;;;;;;;
2019/11/01 08:51:00;;;;;;;2.2;1.3;;;;;;;;;;;;;
2019/11/01 08:53:27;;;;;;;4.2;3.5;;;;;;;;;;;;;
2019/11/01 08:55:51;;;;;;;5.4;4.5;;;;;;;;;;;;;
2019/11/01 08:58:18;;;;;;;3.7;2;;;;;;;;;;;;;
2019/11/01 09:00:44;;;;;;;2;1.2;;;;;;;;;;;;;
2019/11/01 09:03:09;;;;;;;6.8;2.9;;;;;;;;;;;;;
2019/11/01 09:05:35;;;;;;;1.7;1.1;;;;;;;;;;;;;
2019/11/01 09:07:59;;;;;;;1.5;1.2;;;;;;;;;;;;;
2019/11/01 09:10:24;;;;;;;2.4;1.4;;;;;;;;;;;;;
2019/11/01 09:12:54;;;;;;;3.7;2.5;;;;;;;;;;;;;
2019/11/01 09:15:16;;;;;;;3.2;2.2;;;;;;;;;;;;;
2019/11/01 09:17:41;;;;;;;2.6;2;;;;;;;;;;;;;
2019/11/01 09:20:16;;;;;;;4;2.8;;;;;;;;;;;;;
2019/11/01 09:23:10;;;;;;;3.5;2;;;;;;;;;;;;;
2019/11/01 09:27:54;;;;;;;4.1;1.7;;;;;;;;;;;;;
2019/11/01 09:30:24;;;;;;;4.5;2.5;;;;;;;;;;;;;
2019/11/01 09:32:45;;;;;;;4.5;2.8;;;;;;;;;;;;;
2019/11/01 09:35:13;;;;;;;3;2.2;;;;;;;;;;;;;
2019/11/01 09:37:37;;;;;;;3;1.9;;;;;;;;;;;;;
2019/11/01 09:40:07;;;;;;;3.2;2;;;;;;;;;;;;;
2019/11/01 09:42:32;;;;;;;3.7;1.9;;;;;;;;;;;;;
2019/11/01 09:44:58;;;;;;;4.1;1.5;;;;;;;;;;;;;
2019/11/01 09:47:29;;;;;;;2.2;1.7;;;;;;;;;;;;;
2019/11/01 09:49:50;;;;;;;3.7;2;;;;;;;;;;;;;
2019/11/01 09:52:12;;;;;;;4.2;2.2;;;;;;;;;;;;;
2019/11/01 09:54:40;;;;;;;4.5;2.6;;;;;;;;;;;;;
2019/11/01 09:57:05;;;;;;;4.8;3.1;;;;;;;;;;;;;
2019/11/01 09:59:31;;;;;;;2.3;1.9;;;;;;;;;;;;;
2019/11/01 10:01:53;;;;;;;2.1;1.7;;;;;;;;;;;;;
2019/11/01 10:04:23;;;;;;;2.9;1.7;;;;;;;;;;;;;
2019/11/01 10:06:45;;;;;;;3.2;2;;;;;;;;;;;;;
2019/11/01 10:09:12;;;;;;;6;1.7;;;;;;;;;;;;;
2019/11/01 10:11:35;;;;;;;2.9;1.5;;;;;;;;;;;;;
2019/11/01 10:18:59;;;;;;;2.1;1.4;;;;;;;;;;;;;
2019/11/01 10:21:26;;;;;;;2.8;1.5;;;;;;;;;;;;;
2019/11/01 10:23:44;;;;;;;2.5;1.5;;;;;;;;;;;;;
2019/11/01 10:26:11;;;;;;;2.3;1.6;;;;;;;;;;;;;
2019/11/01 10:28:34;;;;;;;2;1.4;;;;;;;;;;;;;
2019/11/01 10:31:01;;;;;;;2.5;1.3;;;;;;;;;;;;;
2019/11/01 10:33:26;;;;;;;2;1.4;;;;;;;;;;;;;
2019/11/01 10:35:52;;;;;;;1.9;1.3;;;;;;;;;;;;;
2019/11/01 10:38:18;;;;;;;2.7;1.4;;;;;;;;;;;;;
2019/11/01 10:43:16;;;;;;;4.2;1.6;;;;;;;;;;;;;
2019/11/01 10:45:40;;;;;;;1.5;1.4;;;;;;;;;;;;;
2019/11/01 10:48:16;;;;;;;3.7;1.5;;;;;;;;;;;;;
2019/11/01 10:50:30;;;;;;;2.6;1.4;;;;;;;;;;;;;
2019/11/01 10:52:56;;;;;;;3.1;1.5;;;;;;;;;;;;;
2019/11/01 10:55:20;;;;;;;2.5;1.7;;;;;;;;;;;;;
2019/11/01 10:57:47;;;;;;;2.8;1.8;;;;;;;;;;;;;
2019/11/01 11:00:10;;;;;;;2.8;1.7;;;;;;;;;;;;;
2019/11/01 11:02:41;;;;;;;3;1.6;;;;;;;;;;;;;
2019/11/01 11:05:02;;;;;;;2.4;1.6;;;;;;;;;;;;;
2019/11/01 11:07:27;;;;;;;3.4;1.6;;;;;;;;;;;;;
2019/11/01 11:10:12;;;;;;;2;1.5;;;;;;;;;;;;;
2019/11/01 11:12:24;;;;;;;2.8;1.7;;;;;;;;;;;;;
2019/11/01 11:14:51;;;;;;;2.8;1.6;;;;;;;;;;;;;
2019/11/01 11:17:14;;;;;;;3.3;1.6;;;;;;;;;;;;;
2019/11/01 11:19:42;;;;;;;3.2;1.7;;;;;;;;;;;;;
2019/11/01 11:22:07;;;;;;;2.8;1.5;;;;;;;;;;;;;
2019/11/01 11:25:15;;;;;;;2.2;1.5;;;;;;;;;;;;;
2019/11/01 11:27:30;;;;;;;2.4;1.6;;;;;;;;;;;;;
2019/11/01 11:29:54;;;;;;;7;2.6;;;;;;;;;;;;;
2019/11/01 11:32:47;;;;;;;3.5;1.6;;;;;;;;;;;;;
2019/11/01 11:34:51;;;;;;;1.8;1.3;;;;;;;;;;;;;
2019/11/01 11:37:11;;;;;;;3.4;1.5;;;;;;;;;;;;;
2019/11/01 11:39:37;;;;;;;2.8;1.5;;;;;;;;;;;;;
2019/11/01 11:42:04;;;;;;;3.2;1.6;;;;;;;;;;;;;
2019/11/01 11:44:31;;;;;;;2.9;1.7;;;;;;;;;;;;;
2019/11/01 11:46:51;;;;;;;2;1.4;;;;;;;;;;;;;
2019/11/01 11:49:17;;;;;;;3.2;1.8;;;;;;;;;;;;;
2019/11/01 11:52:15;;;;;;;3.2;2;;;;;;;;;;;;;
2019/11/01 11:54:23;;;;;;;2.7;1.9;;;;;;;;;;;;;
2019/11/01 11:56:50;;;;;;;4;1.6;;;;;;;;;;;;;
2019/11/01 11:59:15;;;;;;;2.7;1.5;;;;;;;;;;;;;
2019/11/01 12:01:39;;;;;;;2.1;1.6;;;;;;;;;;;;;
2019/11/01 12:04:03;;;;;;;3.6;1.6;;;;;;;;;;;;;
2019/11/01 12:06:35;;;;;;;3;1.8;;;;;;;;;;;;;
2019/11/01 12:08:57;;;;;;;2.7;1.9;;;;;;;;;;;;;
2019/11/01 12:11:19;;;;;;;2.5;1.4;;;;;;;;;;;;;
2019/11/01 12:13:44;;;;;;;1.9;1.2;;;;;;;;;;;;;
2019/11/01 12:16:11;;;;;;;5.4;1.4;;;;;;;;;;;;;
2019/11/01 12:18:34;;;;;;;3;1.4;;;;;;;;;;;;;
2019/11/01 12:21:03;;;;;;;2.5;1.4;;;;;;;;;;;;;
2019/11/01 12:23:32;;;;;;;1.7;1.3;;;;;;;;;;;;;
2019/11/01 12:25:53;;;;;;;2.2;1.4;;;;;;;;;;;;;
2019/11/01 12:28:19;;;;;;;3.1;1.3;;;;;;;;;;;;;
2019/11/01 12:30:50;;;;;;;1.7;1.2;;;;;;;;;;;;;
2019/11/01 12:33:15;;;;;;;2.9;1.3;;;;;;;;;;;;;
2019/11/01 12:35:40;;;;;;;1.5;1.2;;;;;;;;;;;;;
2019/11/01 12:38:08;;;;;;;2.5;1.4;;;;;;;;;;;;;
2019/11/01 12:40:31;;;;;;;1.7;1.2;;;;;;;;;;;;;
2019/11/01 12:42:57;;;;;;;2.1;1.5;;;;;;;;;;;;;
2019/11/01 12:45:22;;;;;;;4;1.8;;;;;;;;;;;;;
2019/11/01 12:47:48;;;;;;;2.1;1.2;;;;;;;;;;;;;
2019/11/01 12:52:44;;;;;;;2;1.3;;;;;;;;;;;;;
2019/11/01 12:55:08;;;;;;;3.5;1.6;;;;;;;;;;;;;
2019/11/01 12:57:32;;;;;;;12.4;2;;;;;;;;;;;;;
2019/11/01 13:00:04;;;;;;;3.6;1.4;;;;;;;;;;;;;
2019/11/01 13:02:25;;;;;;;3.5;1.7;;;;;;;;;;;;;
2019/11/01 13:04:51;;;;;;;3.9;1.7;;;;;;;;;;;;;
2019/11/01 13:07:14;;;;;;;2.3;1.5;;;;;;;;;;;;;
2019/11/01 13:09:45;;;;;;;2.7;1.7;;;;;;;;;;;;;
2019/11/01 13:12:12;;;;;;;3.2;1.7;;;;;;;;;;;;;
2019/11/01 13:14:38;;;;;;;2.3;1.5;;;;;;;;;;;;;
2019/11/01 13:17:03;;;;;;;1.8;1.3;;;;;;;;;;;;;
2019/11/01 13:19:28;;;;;;;2.1;1.3;;;;;;;;;;;;;
2019/11/01 13:21:53;;;;;;;2;1.1;;;;;;;;;;;;;
2019/11/01 13:24:23;;;;;;;2.4;1.3;;;;;;;;;;;;;
2019/11/01 13:26:45;;;;;;;2.1;1.1;;;;;;;;;;;;;
2019/11/01 13:29:16;;;;;;;2;1.2;;;;;;;;;;;;;
2019/11/01 13:31:40;;;;;;;2.1;1.4;;;;;;;;;;;;;
2019/11/01 13:34:03;;;;;;;2.8;1.6;;;;;;;;;;;;;
2019/11/01 13:36:27;;;;;;;2.6;1.7;;;;;;;;;;;;;
2019/11/01 13:38:53;;;;;;;2.7;1.6;;;;;;;;;;;;;
2019/11/01 13:41:24;;;;;;;2.1;1.4;;;;;;;;;;;;;
2019/11/01 13:43:44;;;;;;;2.1;1.6;;;;;;;;;;;;;
2019/11/01 13:46:19;;;;;;;3.4;1.6;;;;;;;;;;;;;
2019/11/01 13:49:14;;;;;;;2.2;1.6;;;;;;;;;;;;;
2019/11/01 13:51:33;;;;;;;2.9;1.5;;;;;;;;;;;;;
2019/11/01 13:53:55;;;;;;;2.9;1.5;;;;;;;;;;;;;
2019/11/01 13:56:20;;;;;;;3.2;1.4;;;;;;;;;;;;;
2019/11/01 13:58:46;;;;;;;3.3;1.5;;;;;;;;;;;;;
2019/11/01 14:01:13;;;;;;;3.3;1.5;;;;;;;;;;;;;
2019/11/01 14:03:41;;;;;;;2.9;1.5;;;;;;;;;;;;;
2019/11/01 14:06:09;;;;;;;2.8;1.6;;;;;;;;;;;;;
2019/11/01 14:08:35;;;;;;;3.3;1.4;;;;;;;;;;;;;
2019/11/01 14:10:56;;;;;;;3.7;1.5;;;;;;;;;;;;;
2019/11/01 14:13:21;;;;;;;1.8;1.4;;;;;;;;;;;;;
2019/11/01 14:16:32;;;;;;;3.9;1.6;;;;;;;;;;;;;
2019/11/01 14:18:56;;;;;;;2.9;1.4;;;;;;;;;;;;;
2019/11/01 14:21:21;;;;;;;1.8;1.5;;;;;;;;;;;;;
2019/11/01 14:23:52;;;;;;;2.9;1.6;;;;;;;;;;;;;
2019/11/01 14:26:13;;;;;;;2.5;1.7;;;;;;;;;;;;;
2019/11/01 14:28:37;;;;;;;3.4;1.6;;;;;;;;;;;;;
2019/11/01 14:31:02;;;;;;;2.2;1.8;;;;;;;;;;;;;
2019/11/01 14:33:31;;;;;;;2.6;1.9;;;;;;;;;;;;;
2019/11/01 14:35:52;;;;;;;3.9;1.9;;;;;;;;;;;;;
2019/11/01 14:38:20;;;;;;;4.4;1.8;;;;;;;;;;;;;
2019/11/01 14:40:43;;;;;;;3.5;1.9;;;;;;;;;;;;;
2019/11/01 14:43:18;;;;;;;3.1;1.8;;;;;;;;;;;;;
2019/11/01 14:45:38;;;;;;;4.5;1.9;;;;;;;;;;;;;
2019/11/01 14:48:02;;;;;;;3.5;2;;;;;;;;;;;;;
2019/11/01 14:50:34;;;;;;;3.7;2;;;;;;;;;;;;;
2019/11/01 14:53:05;;;;;;;4;2;;;;;;;;;;;;;
2019/11/01 14:55:26;;;;;;;4.5;2.2;;;;;;;;;;;;;
2019/11/01 14:57:51;;;;;;;3.9;2.7;;;;;;;;;;;;;
2019/11/01 15:00:17;;;;;;;5.4;2.2;;;;;;;;;;;;;
2019/11/01 15:05:11;;;;;;;2.9;2;;;;;;;;;;;;;
2019/11/01 15:09:58;;;;;;;6.8;3.3;;;;;;;;;;;;;
2019/11/01 15:12:27;;;;;;;5.3;2.7;;;;;;;;;;;;;
2019/11/01 15:14:51;;;;;;;5;3.4;;;;;;;;;;;;;
2019/11/01 15:17:22;;;;;;;5.5;3.2;;;;;;;;;;;;;
2019/11/01 15:19:46;;;;;;;3.7;2.7;;;;;;;;;;;;;
2019/11/01 15:22:20;;;;;;;6.8;3.8;;;;;;;;;;;;;
2019/11/01 15:24:42;;;;;;;14.8;9.5;;;;;;;;;;;;;
2019/11/01 15:27:16;;;;;;;12.6;8.8;;;;;;;;;;;;;
2019/11/01 15:29:40;;;;;;;6.1;3.7;;;;;;;;;;;;;
2019/11/01 15:32:08;;;;;;;5;3.1;;;;;;;;;;;;;
2019/11/01 15:34:38;;;;;;;4.5;3.1;;;;;;;;;;;;;
2019/11/01 15:37:16;;;;;;;5.3;3;;;;;;;;;;;;;
2019/11/01 15:39:41;;;;;;;4.2;3.2;;;;;;;;;;;;;
2019/11/01 15:42:06;;;;;;;6.7;3.6;;;;;;;;;;;;;
2019/11/01 15:44:32;;;;;;;6.5;4.8;;;;;;;;;;;;;
2019/11/01 15:46:56;;;;;;;7.2;5.1;;;;;;;;;;;;;
2019/11/01 15:49:21;;;;;;;6.9;4.4;;;;;;;;;;;;;
2019/11/01 15:51:50;;;;;;;5;3;;;;;;;;;;;;;
2019/11/01 15:54:14;;;;;;;5.8;3.6;;;;;;;;;;;;;
2019/11/01 15:56:38;;;;;;;5.3;3.6;;;;;;;;;;;;;
2019/11/01 15:59:03;;;;;;;6.6;4.5;;;;;;;;;;;;;
2019/11/01 16:01:43;;;;;;;4.5;2.8;;;;;;;;;;;;;
2019/11/01 16:03:53;;;;;;;5.4;3.2;;;;;;;;;;;;;
2019/11/01 16:06:20;;;;;;;5.5;3.4;;;;;;;;;;;;;
2019/11/01 16:08:43;;;;;;;4.9;3.6;;;;;;;;;;;;;
2019/11/01 16:11:11;;;;;;;5.1;3.6;;;;;;;;;;;;;
2019/11/01 16:13:34;;;;;;;4.8;3.5;;;;;;;;;;;;;
2019/11/01 16:15:59;;;;;;;4.8;3.3;;;;;;;;;;;;;
2019/11/01 16:18:24;;;;;;;6.2;4.3;;;;;;;;;;;;;
2019/11/01 16:20:50;;;;;;;6.8;4.6;;;;;;;;;;;;;
2019/11/01 16:23:13;;;;;;;5.6;3.7;;;;;;;;;;;;;
2019/11/01 16:25:40;;;;;;;4.3;3.4;;;;;;;;;;;;;
2019/11/01 16:28:05;;;;;;;6.3;3.3;;;;;;;;;;;;;
2019/11/01 16:30:30;;;;;;;5;3.6;;;;;;;;;;;;;
2019/11/01 16:32:56;;;;;;;5.7;3.8;;;;;;;;;;;;;
2019/11/01 16:35:21;;;;;;;6.2;3.2;;;;;;;;;;;;;
2019/11/01 16:37:46;;;;;;;4.9;3;;;;;;;;;;;;;
2019/11/01 16:40:17;;;;;;;5.2;3.7;;;;;;;;;;;;;
2019/11/01 16:42:38;;;;;;;4.4;3.5;;;;;;;;;;;;;
2019/11/01 16:45:02;;;;;;;3.9;3.5;;;;;;;;;;;;;
2019/11/01 16:47:28;;;;;;;5.4;3.3;;;;;;;;;;;;;
2019/11/01 16:49:59;;;;;;;4.1;3.1;;;;;;;;;;;;;
2019/11/01 16:52:23;;;;;;;4.6;3.5;;;;;;;;;;;;;
2019/11/01 16:54:52;;;;;;;5.9;3.3;;;;;;;;;;;;;
2019/11/01 16:57:15;;;;;;;5.7;4;;;;;;;;;;;;;
2019/11/01 16:59:40;;;;;;;6.6;4;;;;;;;;;;;;;
2019/11/01 17:02:06;;;;;;;6.1;4.6;;;;;;;;;;;;;
2019/11/01 17:04:30;;;;;;;5.1;4.1;;;;;;;;;;;;;
2019/11/01 17:07:06;;;;;;;5.2;4;;;;;;;;;;;;;
2019/11/01 17:09:31;;;;;;;7.1;3.9;;;;;;;;;;;;;
2019/11/01 17:12:05;;;;;;;7.4;4.1;;;;;;;;;;;;;
2019/11/01 17:14:23;;;;;;;5.7;4;;;;;;;;;;;;;
2019/11/01 17:16:53;;;;;;;5.6;3.9;;;;;;;;;;;;;
2019/11/01 17:19:17;;;;;;;6.2;4.1;;;;;;;;;;;;;
2019/11/01 17:21:43;;;;;;;5.9;4;;;;;;;;;;;;;
2019/11/01 17:24:09;;;;;;;5.7;4.4;;;;;;;;;;;;;
2019/11/01 17:26:50;;;;;;;9.3;4.5;;;;;;;;;;;;;
2019/11/01 17:29:11;;;;;;;6.9;4.5;;;;;;;;;;;;;
2019/11/01 17:31:33;;;;;;;7.8;4.2;;;;;;;;;;;;;
2019/11/01 17:33:58;;;;;;;7.4;4.4;;;;;;;;;;;;;
2019/11/01 17:36:22;;;;;;;9.9;5.6;;;;;;;;;;;;;
2019/11/01 17:38:50;;;;;;;9.8;6;;;;;;;;;;;;;
2019/11/01 17:41:16;;;;;;;9.1;5.2;;;;;;;;;;;;;
2019/11/01 17:43:38;;;;;;;7.2;4.3;;;;;;;;;;;;;
2019/11/01 17:46:07;;;;;;;11.8;7.7;;;;;;;;;;;;;
2019/11/01 17:48:32;;;;;;;13.6;9.7;;;;;;;;;;;;;
2019/11/01 17:50:54;;;;;;;16.2;11.4;;;;;;;;;;;;;
2019/11/01 17:55:53;;;;;;;21.1;12.4;;;;;;;;;;;;;
2019/11/01 17:58:20;;;;;;;17.1;11.3;;;;;;;;;;;;;
2019/11/01 18:00:49;;;;;;;12.5;9.1;;;;;;;;;;;;;
2019/11/01 18:03:11;;;;;;;10.8;7.5;;;;;;;;;;;;;
2019/11/01 18:05:36;;;;;;;11.3;7.1;;;;;;;;;;;;;
2019/11/01 18:08:01;;;;;;;12.2;9.3;;;;;;;;;;;;;
2019/11/01 18:10:26;;;;;;;13.3;10.3;;;;;;;;;;;;;
2019/11/01 18:12:55;;;;;;;17.6;11.9;;;;;;;;;;;;;
2019/11/01 18:15:17;;;;;;;15.6;11.1;;;;;;;;;;;;;
2019/11/01 18:17:43;;;;;;;10.6;7;;;;;;;;;;;;;
2019/11/01 18:20:09;;;;;;;11.5;7.3;;;;;;;;;;;;;
2019/11/01 18:22:36;;;;;;;17.1;10.6;;;;;;;;;;;;;
2019/11/01 18:25:00;;;;;;;12.1;7.5;;;;;;;;;;;;;
2019/11/01 18:27:29;;;;;;;11;7.9;;;;;;;;;;;;;
2019/11/01 18:29:54;;;;;;;11.6;8.5;;;;;;;;;;;;;
2019/11/01 18:32:18;;;;;;;23.6;13.9;;;;;;;;;;;;;
2019/11/01 18:34:43;;;;;;;25.9;14.5;;;;;;;;;;;;;
2019/11/01 18:37:08;;;;;;;15.2;10.8;;;;;;;;;;;;;
2019/11/01 18:39:35;;;;;;;18.5;11.6;;;;;;;;;;;;;
2019/11/01 18:41:58;;;;;;;18.6;11.6;;;;;;;;;;;;;
2019/11/01 18:44:24;;;;;;;29;14.1;;;;;;;;;;;;;
2019/11/01 18:46:54;;;;;;;21.9;12;;;;;;;;;;;;;
2019/11/01 18:49:15;;;;;;;19.2;12.5;;;;;;;;;;;;;
2019/11/01 18:51:41;;;;;;;19.6;12.3;;;;;;;;;;;;;
2019/11/01 18:54:16;;;;;;;20.5;11.5;;;;;;;;;;;;;
2019/11/01 18:56:44;;;;;;;22.4;12.8;;;;;;;;;;;;;
2019/11/01 18:59:06;;;;;;;21.2;12.8;;;;;;;;;;;;;
2019/11/01 19:01:33;;;;;;;20.7;11.5;;;;;;;;;;;;;
2019/11/01 19:04:00;;;;;;;22;12.5;;;;;;;;;;;;;
2019/11/01 19:06:24;;;;;;;19.3;11;;;;;;;;;;;;;
2019/11/01 19:13:57;;;;;;;14.9;9;;;;;;;;;;;;;
2019/11/01 19:16:10;;;;;;;12.6;8.9;;;;;;;;;;;;;
2019/11/01 19:18:34;;;;;;;10.8;7.5;;;;;;;;;;;;;
2019/11/01 19:21:02;;;;;;;11.4;7.7;;;;;;;;;;;;;
2019/11/01 19:23:32;;;;;;;12.1;7.5;;;;;;;;;;;;;
2019/11/01 19:25:50;;;;;;;10.2;7.1;;;;;;;;;;;;;
2019/11/01 19:28:20;;;;;;;9.8;7;;;;;;;;;;;;;
2019/11/01 19:30:44;;;;;;;10;7;;;;;;;;;;;;;
2019/11/01 19:33:06;;;;;;;19.5;11.4;;;;;;;;;;;;;
2019/11/01 19:35:32;;;;;;;14;9.7;;;;;;;;;;;;;
2019/11/01 19:38:15;;;;;;;15.5;10.5;;;;;;;;;;;;;
2019/11/01 19:41:16;;;;;;;16.7;11.3;;;;;;;;;;;;;
2019/11/01 19:43:27;;;;;;;19;12.7;;;;;;;;;;;;;
2019/11/01 19:45:58;;;;;;;15.9;10.8;;;;;;;;;;;;;
2019/11/01 19:48:22;;;;;;;18.6;12.1;;;;;;;;;;;;;
2019/11/01 19:50:48;;;;;;;21.2;13;;;;;;;;;;;;;
2019/11/01 19:53:13;;;;;;;24.1;13.2;;;;;;;;;;;;;
2019/11/01 19:55:42;;;;;;;24.6;12.8;;;;;;;;;;;;;
2019/11/01 19:58:09;;;;;;;16.5;10;;;;;;;;;;;;;
2019/11/01 20:00:35;;;;;;;14.5;10;;;;;;;;;;;;;
2019/11/01 20:03:00;;;;;;;12.9;8.9;;;;;;;;;;;;;